Chattaroy, Washington
Current Conditions -  °F | °C
As of 12:53 PM on Tuesday 21 Oct 2014 (Local Time) from KDEW Reporting Station
Overcast Overcast  
Wind Chill: 52°   Ceiling: 2400
Heat Index: 52°   Visibility: 10mi
Dew Point: 45°   Wind: 8mph
Humidity: 77%   Direction: 200°SSW
Pressure: 29.93"   Gusts: NA
Location:  47.89°N, 117.36°W
Report Text: KDEW 211953Z AUTO 20007KT 10SM SCT016 BKN024 OVC030 11/07 A2993 RMK AO2 SLP136 T01110072
Loading
Personal Weather Stations






























Interactive Weather Map New forecast layout! Learn more

10-Day Weather Forecast

Advertisements
Track Severe Weather on mobile